Aeroporto :
LOGIN :

Iscrizione | Disclaimer

   EN    FR    IT 

 










Sommario :    VFR   VFR Marginale   IFR   IFR Intensivo   IFR Molto Intensivo
Visibilità : 
Base nubi : 
>= 8 km
>= 3000ft
5 / 8 km
1000 / 3000 ft
1500m / 5 km
500 / 1000 ft
800 / 1500m
200 / 500 ft
< 800m
< 200 ft
Simboli :   Temporali  Nebbia  Neve Forte  Precipitazioni Forti  Vento > 20 kt
SIGMETs :   Varie  Temporali  Ghiacco  Turbolenza  Onda orograficha  Ceneri Vulcaniche






- Altitudine del aeroporto : 326 ft
- Codice IATA : LCG


LECO - A Coruna

ULTIMO METAR :
  • 182130Z 19005KT 9999 FEW026 07/05 Q1036 NOSIG

METARs OBSOLETI :
  • 182100Z 18004KT 9999 FEW026 07/06 Q1036 NOSIG
  • 182030Z VRB02KT 9999 FEW026 SCT044 07/05 Q1036 NOSIG
  • 182000Z VRB01KT 9999 FEW030 SCT041 07/05 Q1036 NOSIG
  • 181930Z VRB01KT 9999 FEW028 08/06 Q1036 NOSIG
  • 181900Z 28001KT 9999 FEW028 09/05 Q1035 NOSIG

TAF TAF LECO
Valido dal 18 a 21 ore il 19 a 21 ore UTC


182000Z 1821/1921 VRB05KT 9999 SCT030 TX14/1914Z TN04/1908Z
PROB40
TEMPO 1900/1910 3000 BR
PROB30
TEMPO 1906/1910 1000 BCFG BKN002
TEMPO 1912/1918 30010KT



MetMap, La meteo Aeronautica in un colpo d'occhio ! - Copyright ORBIFLY Dicembre 2007 - Disclaimer

ORBIFLY MET'MAP TEAM :

Programmazione e sviluppo : Alexandra Zaïnal
Concezione : Baudouin d'Aumeries
Aiuto per la programmazione : Marc-Olivier Méhu
Supporto tecnico e logistico : Manuel Goepfert
Aiuto per la traduzione : Arnaldo La Scala

Contatto : metmap@orbifly.com




FONTI E CREDITI :

   NOAA